createdAt,value
2018-03-21T00:02:19.071Z,98936.03
2018-03-21T00:04:47.337Z,98938.05
2018-03-21T00:07:15.604Z,98941.41
2018-03-21T00:09:43.893Z,98937.58
2018-03-21T00:12:12.172Z,98948.52
2018-03-21T00:14:40.445Z,98952.61
2018-03-21T00:17:08.725Z,98954.75
2018-03-21T00:19:37.003Z,98949.27
2018-03-21T00:22:05.257Z,98946.11
2018-03-21T00:24:33.529Z,98955.66
2018-03-21T00:27:01.794Z,98951.62
2018-03-21T00:29:30.049Z,98955.23
2018-03-21T00:31:59.096Z,98949.83
2018-03-21T00:34:27.371Z,98945.93
2018-03-21T00:36:55.663Z,98946.91
2018-03-21T00:39:23.996Z,98947.45
2018-03-21T00:41:52.275Z,98947.55
2018-03-21T00:44:20.557Z,98953.54
2018-03-21T00:46:48.824Z,98953.69
2018-03-21T00:49:17.148Z,98959.13
2018-03-21T00:51:45.408Z,98958.28
2018-03-21T00:54:13.676Z,98959.97
2018-03-21T00:56:41.988Z,98964.57
2018-03-21T00:59:10.276Z,98965.11
2018-03-21T01:01:38.543Z,98970.09
2018-03-21T01:04:06.852Z,98970.31
2018-03-21T01:06:35.182Z,98973.91
2018-03-21T01:09:03.452Z,98964.11
2018-03-21T01:11:31.732Z,98972.22
2018-03-21T01:14:00.012Z,98970.10
2018-03-21T01:16:28.275Z,98966.84
2018-03-21T01:18:56.563Z,98971.16
2018-03-21T01:21:24.853Z,98970.97
2018-03-21T01:23:53.132Z,98974.45
2018-03-21T01:26:21.423Z,98971.35
2018-03-21T01:28:50.457Z,98979.72
2018-03-21T01:31:18.724Z,98973.38
2018-03-21T01:33:47.023Z,98978.13
2018-03-21T01:36:15.294Z,98979.81
2018-03-21T01:38:43.585Z,98980.88
2018-03-21T01:41:12.985Z,98983.40
2018-03-21T01:43:41.276Z,98984.41
2018-03-21T01:46:09.566Z,98981.53
2018-03-21T01:48:37.828Z,98981.50
2018-03-21T01:51:06.108Z,98983.41
2018-03-21T01:53:34.376Z,98987.45
2018-03-21T01:56:02.656Z,98988.42
2018-03-21T01:58:30.931Z,98992.93
2018-03-21T02:00:59.204Z,98989.42
2018-03-21T02:03:27.471Z,98992.78
2018-03-21T02:05:55.728Z,98992.59
2018-03-21T02:08:24.000Z,98996.39
2018-03-21T02:10:52.285Z,98990.88
2018-03-21T02:13:20.560Z,98995.30
2018-03-21T02:15:48.829Z,98988.43
2018-03-21T02:18:17.097Z,98991.37
2018-03-21T02:20:45.352Z,98993.33
2018-03-21T02:23:14.379Z,98989.95
2018-03-21T02:25:42.752Z,98988.28
2018-03-21T02:28:11.028Z,98985.16
2018-03-21T02:30:39.335Z,98983.16
2018-03-21T02:33:07.588Z,98989.05
2018-03-21T02:35:35.845Z,98985.95
2018-03-21T02:38:04.131Z,98985.88
2018-03-21T02:40:32.424Z,98983.24
2018-03-21T02:43:00.689Z,98978.78
2018-03-21T02:45:28.976Z,98984.45
2018-03-21T02:47:57.256Z,98988.27
2018-03-21T02:50:25.530Z,98980.75
2018-03-21T02:52:53.813Z,98985.95
2018-03-21T02:55:22.081Z,98987.80
2018-03-21T02:57:50.364Z,98978.77
2018-03-21T03:00:18.623Z,98974.46
2018-03-21T03:02:46.899Z,98980.03
2018-03-21T03:05:15.158Z,98979.52
2018-03-21T03:07:43.432Z,98976.62
2018-03-21T03:10:11.711Z,98980.98
2018-03-21T03:12:40.112Z,98978.32
2018-03-21T03:15:08.462Z,98982.94
2018-03-21T03:17:36.735Z,98983.70
2018-03-21T03:20:05.012Z,98985.18
2018-03-21T03:22:33.287Z,98983.94
2018-03-21T03:25:01.580Z,98989.84
2018-03-21T03:27:29.956Z,98987.73
2018-03-21T03:29:58.244Z,98991.78
2018-03-21T03:32:26.500Z,98993.23
2018-03-21T03:34:54.772Z,98995.40
2018-03-21T03:37:23.059Z,99001.05
2018-03-21T03:39:51.323Z,99004.99
2018-03-21T03:42:19.584Z,99006.83
2018-03-21T03:44:48.636Z,99012.57
2018-03-21T03:47:16.915Z,99006.05
2018-03-21T03:49:45.183Z,99014.05
2018-03-21T03:52:13.483Z,99008.78
2018-03-21T03:54:42.520Z,99002.34
2018-03-21T03:57:10.812Z,98998.61
2018-03-21T03:59:39.085Z,98999.14
2018-03-21T04:02:07.343Z,98998.08
2018-03-21T04:04:35.680Z,99001.21
2018-03-21T04:07:03.951Z,98996.40
2018-03-21T04:09:32.207Z,98999.06
2018-03-21T04:12:00.499Z,99004.32
2018-03-21T04:14:28.854Z,99001.69
2018-03-21T04:16:57.137Z,98997.77
2018-03-21T04:19:25.403Z,98997.11
2018-03-21T04:21:53.689Z,99002.87
2018-03-21T04:24:21.960Z,99003.23
2018-03-21T04:26:50.223Z,99002.42
2018-03-21T04:29:18.664Z,98992.59
2018-03-21T04:31:46.933Z,99005.25
2018-03-21T04:34:15.214Z,99001.36
2018-03-21T04:36:43.474Z,99001.89
2018-03-21T04:39:11.736Z,99001.11
2018-03-21T04:41:40.029Z,99003.22
2018-03-21T04:44:08.294Z,99003.75
2018-03-21T04:46:36.564Z,99009.63
2018-03-21T04:49:04.839Z,99004.92
2018-03-21T04:51:33.113Z,99004.23
2018-03-21T04:54:01.385Z,99007.86
2018-03-21T04:56:29.651Z,99003.48
2018-03-21T04:58:57.913Z,99008.44
2018-03-21T05:01:26.232Z,99005.21
2018-03-21T05:03:54.509Z,99010.81
2018-03-21T05:06:22.798Z,99008.83
2018-03-21T05:08:51.080Z,99012.98
2018-03-21T05:11:20.943Z,99014.14
2018-03-21T05:13:49.231Z,99018.68
2018-03-21T05:16:17.518Z,99025.88
2018-03-21T05:18:45.840Z,99019.50
2018-03-21T05:21:14.875Z,99023.08
2018-03-21T05:23:43.131Z,99024.11
2018-03-21T05:26:11.406Z,99030.07
2018-03-21T05:28:39.692Z,99032.87
2018-03-21T05:31:07.972Z,99033.33
2018-03-21T05:33:36.244Z,99034.58
2018-03-21T05:36:04.499Z,99032.00
2018-03-21T05:38:32.924Z,99037.80
2018-03-21T05:41:01.211Z,99041.94
2018-03-21T05:43:29.481Z,99041.93
2018-03-21T05:45:57.754Z,99041.61
2018-03-21T05:48:26.082Z,99040.54
2018-03-21T05:50:54.360Z,99038.04
2018-03-21T05:53:22.668Z,99044.70
2018-03-21T05:55:51.791Z,99036.79
2018-03-21T05:58:20.068Z,99039.26
2018-03-21T06:00:48.332Z,99038.09
2018-03-21T06:03:16.597Z,99037.88
2018-03-21T06:05:44.887Z,99043.59
2018-03-21T06:08:13.189Z,99047.02
2018-03-21T06:10:42.228Z,99048.60
2018-03-21T06:13:10.545Z,99048.67
2018-03-21T06:15:38.800Z,99057.44
2018-03-21T06:18:07.132Z,99062.21
2018-03-21T06:20:36.117Z,99059.28
2018-03-21T06:23:05.161Z,99064.84
2018-03-21T06:25:33.472Z,99060.26
2018-03-21T06:28:01.728Z,99059.58
2018-03-21T06:30:30.001Z,99061.31
2018-03-21T06:32:58.283Z,99063.39
2018-03-21T06:35:26.536Z,99063.19
2018-03-21T06:37:54.800Z,99067.32
2018-03-21T06:40:23.084Z,99062.97
2018-03-21T06:42:51.357Z,99072.58
2018-03-21T06:45:19.623Z,99075.75
2018-03-21T06:47:47.932Z,99075.38
2018-03-21T06:50:16.215Z,99073.88
2018-03-21T06:52:44.472Z,99082.07
2018-03-21T06:55:12.804Z,99077.58
2018-03-21T06:57:41.101Z,99077.21
2018-03-21T07:00:09.360Z,99072.73
2018-03-21T07:02:38.405Z,99074.30
2018-03-21T07:05:06.672Z,99071.58
2018-03-21T07:07:34.952Z,99076.17
2018-03-21T07:10:03.219Z,99072.01
2018-03-21T07:12:31.487Z,99075.73
2018-03-21T07:15:17.528Z,99077.66
2018-03-21T07:17:45.796Z,99080.83
2018-03-21T07:20:14.071Z,99079.31
2018-03-21T07:22:42.344Z,99083.97
2018-03-21T07:25:10.612Z,99088.37
2018-03-21T07:27:38.868Z,99096.28
2018-03-21T07:30:07.148Z,99090.28
2018-03-21T07:32:35.397Z,99091.48
2018-03-21T07:35:03.643Z,99092.08
2018-03-21T07:37:32.688Z,99091.88
2018-03-21T07:40:00.940Z,99102.79
2018-03-21T07:42:29.189Z,99094.49
2018-03-21T07:44:57.465Z,99096.54
2018-03-21T07:47:26.489Z,99098.14
2018-03-21T07:49:54.738Z,99095.88
2018-03-21T07:52:23.830Z,99100.34
2018-03-21T07:54:52.856Z,99093.33
2018-03-21T07:57:21.097Z,99101.55
2018-03-21T07:59:50.131Z,99099.70
2018-03-21T08:02:18.437Z,99101.48
2018-03-21T08:04:46.654Z,99104.27
2018-03-21T08:07:15.696Z,99106.79
2018-03-21T08:09:43.968Z,99108.45
2018-03-21T08:12:12.239Z,99109.92
2018-03-21T08:14:40.502Z,99115.41
2018-03-21T08:17:08.747Z,99110.80
2018-03-21T08:19:37.779Z,99116.20
2018-03-21T08:22:06.052Z,99111.23
2018-03-21T08:24:34.305Z,99110.05
2018-03-21T08:27:02.585Z,99111.94
2018-03-21T08:29:31.595Z,99114.78
2018-03-21T08:31:59.859Z,99108.62
2018-03-21T08:34:28.162Z,99104.41
2018-03-21T08:36:56.390Z,99107.14
2018-03-21T08:39:25.435Z,99114.73
2018-03-21T08:41:53.696Z,99105.11
2018-03-21T08:44:21.975Z,99102.35
2018-03-21T08:46:50.240Z,99101.08
2018-03-21T08:49:18.486Z,99099.15
2018-03-21T08:51:47.527Z,99097.62
2018-03-21T08:54:15.806Z,99101.30
2018-03-21T08:56:44.060Z,99097.07
2018-03-21T08:59:12.343Z,99096.52
2018-03-21T09:01:40.616Z,99103.23
2018-03-21T09:04:08.869Z,99101.66
2018-03-21T09:06:37.910Z,99097.30
2018-03-21T09:09:06.161Z,99094.58
2018-03-21T09:11:34.416Z,99089.46
2018-03-21T09:14:02.700Z,99092.91
2018-03-21T09:16:30.952Z,99097.76
2018-03-21T09:18:59.991Z,99092.08
2018-03-21T09:21:28.251Z,99084.63
2018-03-21T09:23:56.701Z,99087.24
2018-03-21T09:26:24.945Z,99091.22
2018-03-21T09:28:53.238Z,99084.14
2018-03-21T09:31:22.276Z,99082.49
2018-03-21T09:33:50.523Z,99085.86
2018-03-21T09:36:19.560Z,99084.77
2018-03-21T09:38:47.824Z,99085.97
2018-03-21T09:41:16.084Z,99085.58
2018-03-21T09:43:45.171Z,99087.41
2018-03-21T09:46:14.189Z,99088.03
2018-03-21T09:48:42.452Z,99084.59
2018-03-21T09:51:10.720Z,99085.94
2018-03-21T09:53:39.748Z,99081.33
2018-03-21T09:56:08.010Z,99083.06
2018-03-21T09:58:36.285Z,99073.31
2018-03-21T10:01:04.608Z,99075.98
2018-03-21T10:03:32.806Z,99068.55
2018-03-21T10:06:01.868Z,99068.27
2018-03-21T10:08:30.120Z,99061.19
2018-03-21T10:10:58.382Z,99056.75
2018-03-21T10:13:26.656Z,99058.92
2018-03-21T10:15:54.903Z,99058.38
2018-03-21T10:18:23.948Z,99053.11
2018-03-21T10:20:52.192Z,99051.51
2018-03-21T10:23:20.467Z,99060.70
2018-03-21T10:25:49.503Z,99053.99
2018-03-21T10:28:17.760Z,99049.83
2018-03-21T10:30:46.020Z,99054.21
2018-03-21T10:33:14.347Z,99055.16
2018-03-21T10:35:42.600Z,99047.08
2018-03-21T10:38:10.886Z,99057.02
2018-03-21T10:40:39.141Z,99051.88
2018-03-21T10:43:07.401Z,99047.94
2018-03-21T10:45:35.712Z,99037.33
2018-03-21T10:48:03.967Z,99033.98
2018-03-21T10:50:32.236Z,99035.88
2018-03-21T10:53:00.520Z,99025.87
2018-03-21T10:55:28.779Z,99026.41
2018-03-21T10:57:57.053Z,99035.00
2018-03-21T11:00:26.085Z,99027.32
2018-03-21T11:02:59.812Z,99037.09
2018-03-21T11:05:28.104Z,99038.97
2018-03-21T11:07:57.121Z,99029.48
2018-03-21T11:10:25.375Z,99032.58
2018-03-21T11:12:54.425Z,99030.32
2018-03-21T11:15:22.673Z,99034.74
2018-03-21T11:17:50.998Z,99035.72
2018-03-21T11:20:20.104Z,99029.42
2018-03-21T11:22:49.242Z,99023.32
2018-03-21T11:25:17.672Z,99022.15
2018-03-21T11:27:45.988Z,99022.62
2018-03-21T11:30:14.334Z,99027.82
2018-03-21T11:32:43.474Z,99027.27
2018-03-21T11:35:11.820Z,99028.13
2018-03-21T11:37:41.014Z,99033.65
2018-03-21T11:40:09.320Z,99020.73
2018-03-21T11:42:37.616Z,99012.59
2018-03-21T11:45:05.901Z,99025.93
2018-03-21T11:47:34.168Z,99022.95
2018-03-21T11:50:02.432Z,99020.28
2018-03-21T11:52:30.695Z,99016.88
2018-03-21T11:54:58.962Z,99018.97
2018-03-21T11:57:27.980Z,99015.67
2018-03-21T11:59:56.226Z,99010.50
2018-03-21T12:02:25.266Z,99008.22
2018-03-21T12:04:53.516Z,99005.41
2018-03-21T12:07:21.783Z,99000.48
2018-03-21T12:09:50.040Z,98998.42
2018-03-21T12:12:18.311Z,98991.36
2018-03-21T12:14:46.609Z,98994.56
2018-03-21T12:17:15.724Z,99003.20
2018-03-21T12:19:44.001Z,99002.55
2018-03-21T12:22:12.257Z,99005.17
2018-03-21T12:24:41.295Z,98989.03
2018-03-21T12:27:09.568Z,98992.99
2018-03-21T12:29:37.845Z,98999.88
2018-03-21T12:32:06.121Z,98997.37
2018-03-21T12:34:34.395Z,98992.02
2018-03-21T12:37:02.652Z,98985.39
2018-03-21T12:39:30.942Z,98990.78
2018-03-21T12:41:59.204Z,98992.20
2018-03-21T12:44:27.529Z,98981.21
2018-03-21T12:46:55.749Z,98980.13
2018-03-21T12:49:24.001Z,98965.52
2018-03-21T12:51:53.028Z,98956.41
2018-03-21T12:54:21.300Z,98958.02
2018-03-21T12:56:49.564Z,98946.09
2018-03-21T12:59:17.821Z,98947.31
2018-03-21T13:01:46.863Z,98946.05
2018-03-21T13:04:15.120Z,98937.91
2018-03-21T13:06:43.406Z,98930.56
2018-03-21T13:09:11.716Z,98927.15
2018-03-21T13:11:39.983Z,98919.88
2018-03-21T13:14:08.255Z,98910.77
2018-03-21T13:16:36.606Z,98906.53
2018-03-21T13:19:04.870Z,98920.31
2018-03-21T13:21:33.141Z,98904.45
2018-03-21T13:24:01.432Z,98901.73
2018-03-21T13:26:29.724Z,98907.73
2018-03-21T13:28:57.992Z,98903.95
2018-03-21T13:31:26.248Z,98899.45
2018-03-21T13:33:54.529Z,98907.86
2018-03-21T13:36:22.844Z,98902.30
2018-03-21T13:38:51.115Z,98901.45
2018-03-21T13:41:19.400Z,98894.52
2018-03-21T13:43:47.659Z,98903.25
2018-03-21T13:46:15.928Z,98907.30
2018-03-21T13:48:44.200Z,98911.00
2018-03-21T13:51:12.462Z,98911.13
2018-03-21T13:53:40.722Z,98917.43
2018-03-21T13:56:09.752Z,98920.09
2018-03-21T13:58:38.008Z,98922.00
2018-03-21T14:01:06.278Z,98926.37
2018-03-21T14:03:34.571Z,98924.84
2018-03-21T14:06:02.832Z,98918.45
2018-03-21T14:08:31.140Z,98909.50
2018-03-21T14:10:59.421Z,98902.04
2018-03-21T14:13:27.703Z,98891.78
2018-03-21T14:15:55.957Z,98892.94
2018-03-21T14:18:24.232Z,98884.77
2018-03-21T14:20:52.744Z,98880.10
2018-03-21T14:23:21.163Z,98878.23
2018-03-21T14:25:50.199Z,98888.33
2018-03-21T14:28:18.456Z,98888.49
2018-03-21T14:30:46.830Z,98879.78
2018-03-21T14:33:15.112Z,98877.97
2018-03-21T14:35:43.393Z,98883.48
2018-03-21T14:38:11.656Z,98877.93
2018-03-21T14:40:39.920Z,98876.36
2018-03-21T14:43:08.968Z,98878.02
2018-03-21T14:45:37.221Z,98872.72
2018-03-21T14:48:05.486Z,98870.00
2018-03-21T14:50:33.768Z,98876.46
2018-03-21T14:53:02.029Z,98877.41
2018-03-21T14:55:30.305Z,98882.80
2018-03-21T14:57:58.570Z,98888.00
2018-03-21T15:00:27.590Z,98883.84
2018-03-21T15:02:55.895Z,98885.34
2018-03-21T15:05:24.165Z,98878.48
2018-03-21T15:07:52.431Z,98884.92
2018-03-21T15:10:20.671Z,98874.72
2018-03-21T15:12:48.958Z,98875.23
2018-03-21T15:15:17.200Z,98876.16
2018-03-21T15:17:46.223Z,98880.71
2018-03-21T15:20:14.499Z,98878.64
2018-03-21T15:22:42.772Z,98882.66
2018-03-21T15:25:11.030Z,98875.98
2018-03-21T15:27:40.072Z,98876.03
2018-03-21T15:30:08.333Z,98871.45
2018-03-21T15:32:36.606Z,98868.84
2018-03-21T15:35:04.884Z,98869.33
2018-03-21T15:37:33.156Z,98865.87
2018-03-21T15:40:01.426Z,98866.26
2018-03-21T15:42:29.736Z,98861.18
2018-03-21T15:44:58.035Z,98868.38
2018-03-21T15:47:26.284Z,98860.91
2018-03-21T15:49:54.543Z,98858.53
2018-03-21T15:52:22.797Z,98856.26
2018-03-21T15:54:51.146Z,98854.16
2018-03-21T15:57:19.423Z,98849.72
2018-03-21T15:59:47.680Z,98843.91
2018-03-21T16:02:16.021Z,98840.62
2018-03-21T16:04:44.298Z,98850.58
2018-03-21T16:07:12.603Z,98849.86
2018-03-21T16:09:40.936Z,98857.54
2018-03-21T16:12:09.407Z,98856.13
2018-03-21T16:14:38.424Z,98859.30
2018-03-21T16:17:06.679Z,98860.33
2018-03-21T16:19:35.741Z,98860.30
2018-03-21T16:22:04.008Z,98866.11
2018-03-21T16:24:32.272Z,98870.33
2018-03-21T16:27:00.552Z,98868.19
2018-03-21T16:29:28.819Z,98877.53
2018-03-21T16:31:57.182Z,98877.64
2018-03-21T16:34:25.475Z,98881.94
2018-03-21T16:36:53.725Z,98872.98
2018-03-21T16:39:22.044Z,98887.66
2018-03-21T16:41:50.310Z,98884.59
2018-03-21T16:44:18.581Z,98894.94
2018-03-21T16:46:46.836Z,98889.69
2018-03-21T16:49:15.118Z,98890.36
2018-03-21T16:51:43.413Z,98891.74
2018-03-21T16:54:11.705Z,98897.77
2018-03-21T16:56:40.131Z,98895.08
2018-03-21T16:59:08.512Z,98903.33
2018-03-21T17:01:36.790Z,98912.40
2018-03-21T17:04:05.179Z,98907.47
2018-03-21T17:06:33.499Z,98910.98
2018-03-21T17:09:01.882Z,98912.39
2018-03-21T17:11:30.405Z,98913.48
2018-03-21T17:13:58.796Z,98908.45
2018-03-21T17:16:27.097Z,98907.20
2018-03-21T17:18:55.385Z,98909.31
2018-03-21T17:21:23.929Z,98914.31
2018-03-21T17:23:52.299Z,98923.23
2018-03-21T17:26:20.593Z,98919.47
2018-03-21T17:28:49.270Z,98916.47
2018-03-21T17:31:18.203Z,98923.94
2018-03-21T17:33:47.257Z,98923.48
2018-03-21T17:36:16.602Z,98923.53
2018-03-21T17:38:44.926Z,98925.38
2018-03-21T17:41:13.274Z,98922.98
2018-03-21T17:43:42.350Z,98922.38
2018-03-21T17:46:10.834Z,98928.13
2018-03-21T17:48:40.504Z,98928.32
2018-03-21T17:51:09.566Z,98930.77
2018-03-21T17:53:38.892Z,98934.66
2018-03-21T17:56:08.851Z,98927.98
2018-03-21T17:58:38.978Z,98926.76
2018-03-21T18:01:08.723Z,98928.54
2018-03-21T18:03:38.456Z,98932.98
2018-03-21T18:06:09.332Z,98928.41
2018-03-21T18:08:42.929Z,98930.42
2018-03-21T18:11:12.860Z,98937.78
2018-03-21T18:13:42.649Z,98931.16
2018-03-21T18:16:12.842Z,98934.27
2018-03-21T18:18:42.775Z,98936.69
2018-03-21T18:21:13.165Z,98934.36
2018-03-21T18:23:43.908Z,98937.20
2018-03-21T18:26:13.818Z,98935.62
2018-03-21T18:28:44.666Z,98937.32
2018-03-21T18:31:15.560Z,98937.81
2018-03-21T18:33:45.435Z,98935.70
2018-03-21T18:36:16.274Z,98930.98
2018-03-21T18:38:46.086Z,98934.11
2018-03-21T18:41:16.002Z,98930.83
2018-03-21T18:43:45.930Z,98922.78
2018-03-21T18:46:16.121Z,98921.11
2018-03-21T18:48:45.972Z,98922.17
2018-03-21T18:51:15.782Z,98917.47
2018-03-21T18:53:45.588Z,98917.55
2018-03-21T18:56:15.697Z,98913.38
2018-03-21T18:58:45.708Z,98913.01
2018-03-21T19:01:15.464Z,98909.92
2018-03-21T19:03:45.714Z,98913.37
2018-03-21T19:06:15.908Z,98911.83
2018-03-21T19:08:45.192Z,98908.20
2018-03-21T19:11:14.565Z,98911.29
2018-03-21T19:13:44.018Z,98910.17
2018-03-21T19:16:13.468Z,98913.31
2018-03-21T19:18:43.808Z,98898.73
2018-03-21T19:21:13.279Z,98902.42
2018-03-21T19:23:44.131Z,98902.58
2018-03-21T19:26:13.797Z,98891.38
2018-03-21T19:28:44.045Z,98894.43
2018-03-21T19:31:14.145Z,98892.22
2018-03-21T19:33:44.318Z,98891.36
2018-03-21T19:36:14.072Z,98889.68
2018-03-21T19:38:45.533Z,98890.05
2018-03-21T19:41:16.224Z,98884.41
2018-03-21T19:43:46.221Z,98879.39
2018-03-21T19:46:16.374Z,98885.81
2018-03-21T19:48:46.352Z,98890.02
2018-03-21T19:51:16.440Z,98885.48
2018-03-21T19:53:47.215Z,98889.03
2018-03-21T19:56:17.330Z,98880.27
2018-03-21T19:58:47.616Z,98877.96
2018-03-21T20:01:18.463Z,98870.28
2018-03-21T20:03:48.384Z,98859.45
2018-03-21T20:06:18.432Z,98858.55
2018-03-21T20:08:48.430Z,98856.86
2018-03-21T20:11:18.327Z,98860.50
2018-03-21T20:13:48.227Z,98865.14
2018-03-21T20:16:19.057Z,98858.94
2018-03-21T20:18:49.828Z,98857.39
2018-03-21T20:21:19.491Z,98849.56
2018-03-21T20:23:49.715Z,98845.18
2018-03-21T20:26:20.211Z,98849.37
2018-03-21T20:28:49.579Z,98843.98
2018-03-21T20:31:20.175Z,98842.14
2018-03-21T20:33:51.777Z,98847.16
2018-03-21T20:36:21.696Z,98842.33
2018-03-21T20:38:51.703Z,98838.52
2018-03-21T20:41:21.794Z,98833.73
2018-03-21T20:43:52.654Z,98829.45
2018-03-21T20:46:22.535Z,98829.12
2018-03-21T20:48:53.890Z,98824.80
2018-03-21T20:51:24.150Z,98822.04
2018-03-21T20:53:54.191Z,98823.69
2018-03-21T20:56:24.829Z,98817.19
2018-03-21T20:58:54.852Z,98814.11
2018-03-21T21:01:24.690Z,98809.09
2018-03-21T21:03:55.546Z,98818.88
2018-03-21T21:06:25.446Z,98822.34
2018-03-21T21:08:56.340Z,98814.23
2018-03-21T21:11:26.208Z,98819.98
2018-03-21T21:13:56.104Z,98810.04
2018-03-21T21:16:26.776Z,98809.06
2018-03-21T21:18:57.463Z,98802.75
2018-03-21T21:21:27.550Z,98799.45
2018-03-21T21:23:58.012Z,98805.72
2018-03-21T21:26:28.692Z,98799.95
2018-03-21T21:28:58.995Z,98805.35
2018-03-21T21:31:29.636Z,98797.66
2018-03-21T21:33:59.677Z,98800.02
2018-03-21T21:36:29.490Z,98785.64
2018-03-21T21:38:59.552Z,98788.76
2018-03-21T21:41:30.080Z,98785.05
2018-03-21T21:43:59.894Z,98780.19
2018-03-21T21:46:30.590Z,98786.77
2018-03-21T21:49:00.580Z,98779.20
2018-03-21T21:51:29.972Z,98775.98
2018-03-21T21:54:00.064Z,98771.82
2018-03-21T21:56:30.681Z,98771.84
2018-03-21T21:59:00.552Z,98770.52
2018-03-21T22:01:31.862Z,98772.19
2018-03-21T22:04:02.714Z,98768.03
2018-03-21T22:06:32.219Z,98763.36
2018-03-21T22:09:03.010Z,98753.69
2018-03-21T22:11:32.784Z,98758.14
2018-03-21T22:14:02.121Z,98752.05
2018-03-21T22:16:31.555Z,98742.91
2018-03-21T22:18:59.920Z,98738.51
2018-03-21T22:21:28.339Z,98738.30
2018-03-21T22:23:56.616Z,98739.51
2018-03-21T22:26:24.873Z,98733.11
2018-03-21T22:28:53.164Z,98724.41
2018-03-21T22:31:21.408Z,98721.07
2018-03-21T22:33:49.663Z,98711.27
2018-03-21T22:36:18.702Z,98713.39
2018-03-21T22:38:46.971Z,98708.59
2018-03-21T22:41:15.212Z,98712.30
2018-03-21T22:43:44.251Z,98711.33
2018-03-21T22:46:12.499Z,98693.98
2018-03-21T22:48:40.759Z,98703.59
2018-03-21T22:51:09.791Z,98702.18
2018-03-21T22:53:38.051Z,98695.91
2018-03-21T22:56:06.304Z,98686.92
2018-03-21T22:58:35.348Z,98691.16
2018-03-21T23:01:03.661Z,98694.22
2018-03-21T23:03:31.924Z,98686.59
2018-03-21T23:06:00.236Z,98680.83
2018-03-21T23:08:29.257Z,98676.38
2018-03-21T23:10:57.511Z,98679.22
2018-03-21T23:13:25.800Z,98673.20
2018-03-21T23:15:54.072Z,98677.31
2018-03-21T23:18:23.088Z,98666.04
2018-03-21T23:20:51.354Z,98663.03
2018-03-21T23:23:19.611Z,98667.28
2018-03-21T23:25:47.940Z,98671.38
2018-03-21T23:28:16.277Z,98669.53
2018-03-21T23:30:44.540Z,98675.69
2018-03-21T23:33:12.791Z,98673.52
2018-03-21T23:35:41.816Z,98673.15
2018-03-21T23:38:10.097Z,98669.42
2018-03-21T23:40:38.369Z,98663.53
2018-03-21T23:43:06.653Z,98659.84
2018-03-21T23:45:34.973Z,98666.28
2018-03-21T23:48:03.256Z,98652.81
2018-03-21T23:50:32.294Z,98660.41
2018-03-21T23:53:00.589Z,98656.77
2018-03-21T23:55:28.850Z,98658.00
2018-03-21T23:57:57.138Z,98653.58
